sensor_id;sensor_type;location;lat;lon;timestamp;pressure;altitude;pressure_sealevel;temperature;humidity
40838;BME280;29632;49.168;9.848;2023-08-06T00:01:52;96082.59;;;21.71;45.50
40838;BME280;29632;49.168;9.848;2023-08-06T00:04:17;96081.78;;;21.71;45.44
40838;BME280;29632;49.168;9.848;2023-08-06T00:06:43;96082.59;;;21.71;45.56
40838;BME280;29632;49.168;9.848;2023-08-06T00:09:09;96081.09;;;21.63;45.49
40838;BME280;29632;49.168;9.848;2023-08-06T00:11:34;96081.22;;;21.57;45.53
40838;BME280;29632;49.168;9.848;2023-08-06T00:14:00;96075.00;;;21.51;45.72
40838;BME280;29632;49.168;9.848;2023-08-06T00:16:25;96069.44;;;21.53;45.72
40838;BME280;29632;49.168;9.848;2023-08-06T00:18:51;96075.56;;;21.53;45.65
40838;BME280;29632;49.168;9.848;2023-08-06T00:21:17;96068.66;;;21.52;45.56
40838;BME280;29632;49.168;9.848;2023-08-06T00:23:42;96069.44;;;21.53;45.54
40838;BME280;29632;49.168;9.848;2023-08-06T00:26:08;96069.72;;;21.51;45.89
40838;BME280;29632;49.168;9.848;2023-08-06T00:28:34;96066.47;;;21.49;45.64
40838;BME280;29632;49.168;9.848;2023-08-06T00:30:59;96062.63;;;21.45;45.67
40838;BME280;29632;49.168;9.848;2023-08-06T00:33:25;96061.50;;;21.41;45.88
40838;BME280;29632;49.168;9.848;2023-08-06T00:35:51;96065.38;;;21.38;46.13
40838;BME280;29632;49.168;9.848;2023-08-06T00:38:17;96058.72;;;21.36;45.89
40838;BME280;29632;49.168;9.848;2023-08-06T00:40:42;96056.75;;;21.31;45.93
40838;BME280;29632;49.168;9.848;2023-08-06T00:43:09;96056.97;;;21.29;46.11
40838;BME280;29632;49.168;9.848;2023-08-06T00:45:37;96058.84;;;21.29;46.14
40838;BME280;29632;49.168;9.848;2023-08-06T00:48:03;96058.25;;;21.27;45.82
40838;BME280;29632;49.168;9.848;2023-08-06T00:50:30;96060.34;;;21.25;46.15
40838;BME280;29632;49.168;9.848;2023-08-06T00:52:56;96057.78;;;21.18;46.35
40838;BME280;29632;49.168;9.848;2023-08-06T00:55:21;96046.84;;;21.15;46.10
40838;BME280;29632;49.168;9.848;2023-08-06T00:57:47;96042.59;;;21.13;46.10
40838;BME280;29632;49.168;9.848;2023-08-06T01:00:13;96048.09;;;21.12;46.31
40838;BME280;29632;49.168;9.848;2023-08-06T01:02:39;96039.00;;;21.08;46.25
40838;BME280;29632;49.168;9.848;2023-08-06T01:05:05;96041.31;;;21.04;46.25
40838;BME280;29632;49.168;9.848;2023-08-06T01:10:30;96025.88;;;21.01;46.21
40838;BME280;29632;49.168;9.848;2023-08-06T01:15:33;96017.59;;;20.98;46.21
40838;BME280;29632;49.168;9.848;2023-08-06T01:18:00;96024.72;;;20.97;46.29
40838;BME280;29632;49.168;9.848;2023-08-06T01:20:30;96015.63;;;20.93;46.29
40838;BME280;29632;49.168;9.848;2023-08-06T01:22:56;96022.75;;;20.92;46.36
40838;BME280;29632;49.168;9.848;2023-08-06T01:25:21;96013.69;;;20.88;46.19
40838;BME280;29632;49.168;9.848;2023-08-06T01:27:52;96009.75;;;20.91;46.19
40838;BME280;29632;49.168;9.848;2023-08-06T01:30:26;96006.53;;;20.89;46.48
40838;BME280;29632;49.168;9.848;2023-08-06T01:32:58;96015.13;;;20.84;46.27
40838;BME280;29632;49.168;9.848;2023-08-06T01:35:24;96009.16;;;20.77;46.46
40838;BME280;29632;49.168;9.848;2023-08-06T01:37:50;96012.94;;;20.69;46.55
40838;BME280;29632;49.168;9.848;2023-08-06T01:40:16;96014.66;;;20.64;46.42
40838;BME280;29632;49.168;9.848;2023-08-06T01:42:42;96013.66;;;20.58;46.67
40838;BME280;29632;49.168;9.848;2023-08-06T01:45:08;96007.81;;;20.56;46.48
40838;BME280;29632;49.168;9.848;2023-08-06T01:47:34;96010.31;;;20.51;46.55
40838;BME280;29632;49.168;9.848;2023-08-06T01:49:59;96002.72;;;20.54;46.35
40838;BME280;29632;49.168;9.848;2023-08-06T01:52:26;95991.13;;;20.55;46.41
40838;BME280;29632;49.168;9.848;2023-08-06T01:54:52;95994.13;;;20.59;46.51
40838;BME280;29632;49.168;9.848;2023-08-06T01:57:17;95994.72;;;20.61;46.57
40838;BME280;29632;49.168;9.848;2023-08-06T01:59:43;95995.53;;;20.62;46.44
40838;BME280;29632;49.168;9.848;2023-08-06T02:02:09;95999.19;;;20.61;46.61
40838;BME280;29632;49.168;9.848;2023-08-06T02:04:34;95989.63;;;20.60;46.43
40838;BME280;29632;49.168;9.848;2023-08-06T02:07:00;95984.22;;;20.54;46.42
40838;BME280;29632;49.168;9.848;2023-08-06T02:09:26;95980.78;;;20.54;46.64
40838;BME280;29632;49.168;9.848;2023-08-06T02:11:51;95979.28;;;20.46;46.78
40838;BME280;29632;49.168;9.848;2023-08-06T02:14:17;95970.75;;;20.44;46.62
40838;BME280;29632;49.168;9.848;2023-08-06T02:16:42;95969.72;;;20.45;46.80
40838;BME280;29632;49.168;9.848;2023-08-06T02:19:08;95972.59;;;20.44;46.54
40838;BME280;29632;49.168;9.848;2023-08-06T02:21:34;95966.94;;;20.40;46.95
40838;BME280;29632;49.168;9.848;2023-08-06T02:23:59;95963.06;;;20.43;46.82
40838;BME280;29632;49.168;9.848;2023-08-06T02:26:25;95960.03;;;20.39;46.72
40838;BME280;29632;49.168;9.848;2023-08-06T02:28:51;95953.38;;;20.36;46.80
40838;BME280;29632;49.168;9.848;2023-08-06T02:31:16;95952.00;;;20.34;46.96
40838;BME280;29632;49.168;9.848;2023-08-06T02:33:42;95951.59;;;20.30;46.97
40838;BME280;29632;49.168;9.848;2023-08-06T02:36:07;95952.44;;;20.31;46.94
40838;BME280;29632;49.168;9.848;2023-08-06T02:38:33;95947.94;;;20.31;46.99
40838;BME280;29632;49.168;9.848;2023-08-06T02:41:01;95950.59;;;20.31;47.02
40838;BME280;29632;49.168;9.848;2023-08-06T02:43:27;95942.88;;;20.30;47.03
40838;BME280;29632;49.168;9.848;2023-08-06T02:45:56;95946.44;;;20.24;47.06
40838;BME280;29632;49.168;9.848;2023-08-06T02:48:22;95942.03;;;20.17;47.29
40838;BME280;29632;49.168;9.848;2023-08-06T02:50:48;95934.78;;;20.13;47.28
40838;BME280;29632;49.168;9.848;2023-08-06T02:53:13;95933.97;;;20.12;47.31
40838;BME280;29632;49.168;9.848;2023-08-06T02:55:47;95923.84;;;20.09;47.26
40838;BME280;29632;49.168;9.848;2023-08-06T02:58:14;95927.31;;;20.10;47.09
40838;BME280;29632;49.168;9.848;2023-08-06T03:00:40;95922.59;;;20.12;47.29
40838;BME280;29632;49.168;9.848;2023-08-06T03:03:05;95923.06;;;20.09;47.29
40838;BME280;29632;49.168;9.848;2023-08-06T03:05:31;95918.81;;;20.08;47.17
40838;BME280;29632;49.168;9.848;2023-08-06T03:07:57;95919.59;;;20.08;47.34
40838;BME280;29632;49.168;9.848;2023-08-06T03:10:22;95925.91;;;20.07;47.37
40838;BME280;29632;49.168;9.848;2023-08-06T03:12:48;95916.97;;;20.08;47.48
40838;BME280;29632;49.168;9.848;2023-08-06T03:15:13;95920.63;;;20.07;47.42
40838;BME280;29632;49.168;9.848;2023-08-06T03:17:39;95916.97;;;20.08;47.37
40838;BME280;29632;49.168;9.848;2023-08-06T03:20:06;95912.25;;;20.10;47.17
40838;BME280;29632;49.168;9.848;2023-08-06T03:22:31;95914.91;;;20.10;47.33
40838;BME280;29632;49.168;9.848;2023-08-06T03:24:57;95912.25;;;20.10;47.41
40838;BME280;29632;49.168;9.848;2023-08-06T03:27:23;95905.13;;;20.11;47.32
40838;BME280;29632;49.168;9.848;2023-08-06T03:29:49;95903.31;;;20.11;47.38
40838;BME280;29632;49.168;9.848;2023-08-06T03:32:15;95910.63;;;20.09;47.42
40838;BME280;29632;49.168;9.848;2023-08-06T03:34:41;95910.28;;;20.06;47.49
40838;BME280;29632;49.168;9.848;2023-08-06T03:37:07;95904.63;;;20.02;47.42
40838;BME280;29632;49.168;9.848;2023-08-06T03:39:32;95908.91;;;20.03;47.49
40838;BME280;29632;49.168;9.848;2023-08-06T03:41:58;95910.50;;;20.04;47.67
40838;BME280;29632;49.168;9.848;2023-08-06T03:44:23;95905.81;;;20.06;47.73
40838;BME280;29632;49.168;9.848;2023-08-06T03:46:49;95896.63;;;20.09;47.70
40838;BME280;29632;49.168;9.848;2023-08-06T03:49:15;95891.91;;;20.11;47.42
40838;BME280;29632;49.168;9.848;2023-08-06T03:51:40;95894.31;;;20.12;47.54
40838;BME280;29632;49.168;9.848;2023-08-06T03:54:06;95897.56;;;20.14;47.68
40838;BME280;29632;49.168;9.848;2023-08-06T03:56:32;95897.91;;;20.18;47.56
40838;BME280;29632;49.168;9.848;2023-08-06T03:58:57;95893.66;;;20.17;47.65
40838;BME280;29632;49.168;9.848;2023-08-06T04:01:23;95898.94;;;20.17;47.67
40838;BME280;29632;49.168;9.848;2023-08-06T04:03:48;95888.03;;;20.13;47.97
40838;BME280;29632;49.168;9.848;2023-08-06T04:06:14;95888.69;;;20.09;47.87
40838;BME280;29632;49.168;9.848;2023-08-06T04:08:40;95887.09;;;20.08;47.77
40838;BME280;29632;49.168;9.848;2023-08-06T04:11:05;95884.81;;;20.11;47.60
40838;BME280;29632;49.168;9.848;2023-08-06T04:13:31;95887.66;;;20.10;48.01
40838;BME280;29632;49.168;9.848;2023-08-06T04:16:06;95889.75;;;20.08;48.11
40838;BME280;29632;49.168;9.848;2023-08-06T04:18:31;95887.66;;;20.10;47.95
40838;BME280;29632;49.168;9.848;2023-08-06T04:20:57;95884.19;;;20.09;47.91
40838;BME280;29632;49.168;9.848;2023-08-06T04:23:23;95879.75;;;20.10;48.02
40838;BME280;29632;49.168;9.848;2023-08-06T04:25:50;95881.81;;;20.08;48.06
40838;BME280;29632;49.168;9.848;2023-08-06T04:28:15;95886.28;;;20.07;48.05
40838;BME280;29632;49.168;9.848;2023-08-06T04:30:41;95886.28;;;20.07;48.11
40838;BME280;29632;49.168;9.848;2023-08-06T04:33:06;95885.03;;;20.10;48.05
40838;BME280;29632;49.168;9.848;2023-08-06T04:35:32;95884.56;;;20.13;48.00
40838;BME280;29632;49.168;9.848;2023-08-06T04:37:58;95884.34;;;20.14;48.06
40838;BME280;29632;49.168;9.848;2023-08-06T04:40:23;95880.88;;;20.14;48.12
40838;BME280;29632;49.168;9.848;2023-08-06T04:42:49;95889.41;;;20.16;47.87
40838;BME280;29632;49.168;9.848;2023-08-06T04:45:14;95876.19;;;20.16;48.04
40838;BME280;29632;49.168;9.848;2023-08-06T04:47:40;95878.38;;;20.19;47.96
40838;BME280;29632;49.168;9.848;2023-08-06T04:50:06;95875.72;;;20.19;48.01
40838;BME280;29632;49.168;9.848;2023-08-06T04:52:32;95878.72;;;20.23;48.01
40838;BME280;29632;49.168;9.848;2023-08-06T04:54:57;95882.78;;;20.25;47.76
40838;BME280;29632;49.168;9.848;2023-08-06T04:57:23;95878.84;;;20.28;48.03
40838;BME280;29632;49.168;9.848;2023-08-06T04:59:49;95879.66;;;20.28;47.85
40838;BME280;29632;49.168;9.848;2023-08-06T05:02:14;95883.13;;;20.29;47.96
40838;BME280;29632;49.168;9.848;2023-08-06T05:04:40;95885.50;;;20.30;47.81
40838;BME280;29632;49.168;9.848;2023-08-06T05:07:06;95879.66;;;20.28;47.66
40838;BME280;29632;49.168;9.848;2023-08-06T05:09:32;95882.78;;;20.25;48.25
40838;BME280;29632;49.168;9.848;2023-08-06T05:11:57;95883.00;;;20.24;48.18
40838;BME280;29632;49.168;9.848;2023-08-06T05:14:23;95888.72;;;20.21;48.06
40838;BME280;29632;49.168;9.848;2023-08-06T05:16:49;95884.34;;;20.14;48.36
40838;BME280;29632;49.168;9.848;2023-08-06T05:19:14;95886.63;;;20.11;48.41
40838;BME280;29632;49.168;9.848;2023-08-06T05:21:40;95890.09;;;20.11;48.43
40838;BME280;29632;49.168;9.848;2023-08-06T05:24:05;95893.19;;;20.08;48.41
40838;BME280;29632;49.168;9.848;2023-08-06T05:26:31;95888.78;;;20.02;48.34
40838;BME280;29632;49.168;9.848;2023-08-06T05:28:57;95882.91;;;20.00;48.58
40838;BME280;29632;49.168;9.848;2023-08-06T05:31:22;95891.66;;;20.00;48.71
40838;BME280;29632;49.168;9.848;2023-08-06T05:33:48;95893.50;;;20.00;48.30
40838;BME280;29632;49.168;9.848;2023-08-06T05:36:14;95897.63;;;19.96;48.57
40838;BME280;29632;49.168;9.848;2023-08-06T05:38:39;95896.09;;;19.88;48.75
40838;BME280;29632;49.168;9.848;2023-08-06T05:41:05;95898.38;;;19.85;48.91
40838;BME280;29632;49.168;9.848;2023-08-06T05:43:30;95901.38;;;19.88;48.62
40838;BME280;29632;49.168;9.848;2023-08-06T05:45:56;95906.00;;;19.93;48.61
40838;BME280;29632;49.168;9.848;2023-08-06T05:48:22;95910.47;;;19.92;48.82
40838;BME280;29632;49.168;9.848;2023-08-06T05:50:51;95902.19;;;19.89;48.71
40838;BME280;29632;49.168;9.848;2023-08-06T05:53:17;95899.56;;;19.89;48.95
40838;BME280;29632;49.168;9.848;2023-08-06T05:55:43;95900.13;;;19.91;48.67
40838;BME280;29632;49.168;9.848;2023-08-06T05:58:08;95905.06;;;19.87;49.07
40838;BME280;29632;49.168;9.848;2023-08-06T06:00:34;95901.59;;;19.87;49.00
40838;BME280;29632;49.168;9.848;2023-08-06T06:03:00;95897.22;;;19.80;49.10
40838;BME280;29632;49.168;9.848;2023-08-06T06:05:26;95895.59;;;19.79;49.19
40838;BME280;29632;49.168;9.848;2023-08-06T06:07:52;95903.59;;;19.73;49.37
40838;BME280;29632;49.168;9.848;2023-08-06T06:10:18;95900.94;;;19.73;49.43
40838;BME280;29632;49.168;9.848;2023-08-06T06:12:43;95906.91;;;19.68;49.62
40838;BME280;29632;49.168;9.848;2023-08-06T06:15:09;95903.75;;;19.59;49.45
40838;BME280;29632;49.168;9.848;2023-08-06T06:17:35;95903.81;;;19.53;49.58
40838;BME280;29632;49.168;9.848;2023-08-06T06:20:01;95901.97;;;19.53;49.53
40838;BME280;29632;49.168;9.848;2023-08-06T06:22:26;95908.31;;;19.52;49.68
40838;BME280;29632;49.168;9.848;2023-08-06T06:24:52;95905.09;;;19.50;49.62
40838;BME280;29632;49.168;9.848;2023-08-06T06:27:18;95907.59;;;19.45;49.64
40838;BME280;29632;49.168;9.848;2023-08-06T06:29:43;95910.44;;;19.43;49.63
40838;BME280;29632;49.168;9.848;2023-08-06T06:32:09;95909.41;;;19.44;49.67
40838;BME280;29632;49.168;9.848;2023-08-06T06:34:34;95911.38;;;19.49;49.55
40838;BME280;29632;49.168;9.848;2023-08-06T06:37:00;95903.47;;;19.49;49.57
40838;BME280;29632;49.168;9.848;2023-08-06T06:39:26;95907.47;;;19.52;49.49
40838;BME280;29632;49.168;9.848;2023-08-06T06:41:51;95908.88;;;19.54;49.45
40838;BME280;29632;49.168;9.848;2023-08-06T06:44:17;95907.47;;;19.52;49.55
40838;BME280;29632;49.168;9.848;2023-08-06T06:46:42;95912.66;;;19.47;49.60
40838;BME280;29632;49.168;9.848;2023-08-06T06:49:08;95919.59;;;19.41;49.78
40838;BME280;29632;49.168;9.848;2023-08-06T06:51:34;95909.50;;;19.38;50.02
40838;BME280;29632;49.168;9.848;2023-08-06T06:53:59;95915.78;;;19.37;49.80
40838;BME280;29632;49.168;9.848;2023-08-06T06:56:25;95908.88;;;19.36;49.99
40838;BME280;29632;49.168;9.848;2023-08-06T06:58:51;95903.03;;;19.34;49.92
40838;BME280;29632;49.168;9.848;2023-08-06T07:01:16;95903.03;;;19.34;49.97
40838;BME280;29632;49.168;9.848;2023-08-06T07:03:42;95911.09;;;19.39;49.84
40838;BME280;29632;49.168;9.848;2023-08-06T07:06:08;95907.44;;;19.40;49.87
40838;BME280;29632;49.168;9.848;2023-08-06T07:08:33;95900.53;;;19.39;49.70
40838;BME280;29632;49.168;9.848;2023-08-06T07:11:03;95903.59;;;19.36;49.77
40838;BME280;29632;49.168;9.848;2023-08-06T07:13:29;95908.53;;;19.32;49.87
40838;BME280;29632;49.168;9.848;2023-08-06T07:15:55;95908.63;;;19.26;50.10
40838;BME280;29632;49.168;9.848;2023-08-06T07:18:22;95903.91;;;19.28;50.04
40838;BME280;29632;49.168;9.848;2023-08-06T07:20:49;95910.66;;;19.23;50.20
40838;BME280;29632;49.168;9.848;2023-08-06T07:23:14;95911.84;;;19.28;49.71
40838;BME280;29632;49.168;9.848;2023-08-06T07:25:40;95904.50;;;19.30;49.79
40838;BME280;29632;49.168;9.848;2023-08-06T07:28:06;95908.16;;;19.29;50.01
40838;BME280;29632;49.168;9.848;2023-08-06T07:30:32;95920.34;;;19.30;50.04
40838;BME280;29632;49.168;9.848;2023-08-06T07:32:57;95903.25;;;19.32;50.09
40838;BME280;29632;49.168;9.848;2023-08-06T07:35:23;95908.38;;;19.27;49.92
40838;BME280;29632;49.168;9.848;2023-08-06T07:37:49;95907.00;;;19.24;50.10
40838;BME280;29632;49.168;9.848;2023-08-06T07:40:14;95907.00;;;19.24;50.16
40838;BME280;29632;49.168;9.848;2023-08-06T07:42:40;95905.72;;;19.27;50.03
40838;BME280;29632;49.168;9.848;2023-08-06T07:45:06;95905.66;;;19.34;50.04
40838;BME280;29632;49.168;9.848;2023-08-06T07:47:32;95907.66;;;19.38;50.09
40838;BME280;29632;49.168;9.848;2023-08-06T07:49:58;95908.22;;;19.40;49.92
40838;BME280;29632;49.168;9.848;2023-08-06T07:52:25;95905.16;;;19.43;49.99
40838;BME280;29632;49.168;9.848;2023-08-06T07:54:50;95902.09;;;19.47;49.73
40838;BME280;29632;49.168;9.848;2023-08-06T07:57:16;95901.63;;;19.50;49.85
40838;BME280;29632;49.168;9.848;2023-08-06T07:59:42;95901.84;;;19.48;49.73
40838;BME280;29632;49.168;9.848;2023-08-06T08:02:07;95912.41;;;19.48;50.12
40838;BME280;29632;49.168;9.848;2023-08-06T08:04:33;95906.91;;;19.50;49.97
40838;BME280;29632;49.168;9.848;2023-08-06T08:06:59;95910.00;;;19.47;49.99
40838;BME280;29632;49.168;9.848;2023-08-06T08:09:24;95914.47;;;19.46;50.04
40838;BME280;29632;49.168;9.848;2023-08-06T08:11:50;95911.66;;;19.41;49.99
40838;BME280;29632;49.168;9.848;2023-08-06T08:14:16;95906.03;;;19.37;50.31
40838;BME280;29632;49.168;9.848;2023-08-06T08:16:41;95910.06;;;19.40;50.10
40838;BME280;29632;49.168;9.848;2023-08-06T08:19:07;95911.03;;;19.46;50.37
40838;BME280;29632;49.168;9.848;2023-08-06T08:21:33;95902.66;;;19.49;50.07
40838;BME280;29632;49.168;9.848;2023-08-06T08:24:00;95906.75;;;19.44;50.34
40838;BME280;29632;49.168;9.848;2023-08-06T08:26:25;95900.03;;;19.49;50.17
40838;BME280;29632;49.168;9.848;2023-08-06T08:28:53;95896.69;;;19.53;50.08
40838;BME280;29632;49.168;9.848;2023-08-06T08:31:19;95901.97;;;19.53;50.34
40838;BME280;29632;49.168;9.848;2023-08-06T08:33:44;95904.63;;;19.53;50.29
40838;BME280;29632;49.168;9.848;2023-08-06T08:36:10;95906.69;;;19.51;50.10
40838;BME280;29632;49.168;9.848;2023-08-06T08:38:36;95898.97;;;19.50;50.39
40838;BME280;29632;49.168;9.848;2023-08-06T08:41:01;95900.25;;;19.47;50.21
40838;BME280;29632;49.168;9.848;2023-08-06T08:43:27;95903.69;;;19.48;50.35
40838;BME280;29632;49.168;9.848;2023-08-06T08:45:54;95902.09;;;19.47;50.40
40838;BME280;29632;49.168;9.848;2023-08-06T08:48:25;95897.38;;;19.49;50.34
40838;BME280;29632;49.168;9.848;2023-08-06T08:50:52;95904.25;;;19.50;50.47
40838;BME280;29632;49.168;9.848;2023-08-06T08:53:18;95896.81;;;19.47;50.45
40838;BME280;29632;49.168;9.848;2023-08-06T08:55:48;95896.41;;;19.43;50.61
40838;BME280;29632;49.168;9.848;2023-08-06T08:58:14;95896.41;;;19.43;50.80
40838;BME280;29632;49.168;9.848;2023-08-06T09:00:43;95902.09;;;19.47;50.52
40838;BME280;29632;49.168;9.848;2023-08-06T09:03:10;95904.25;;;19.50;50.38
40838;BME280;29632;49.168;9.848;2023-08-06T09:05:36;95906.91;;;19.50;50.45
40838;BME280;29632;49.168;9.848;2023-08-06T09:08:04;95901.41;;;19.51;50.56
40838;BME280;29632;49.168;9.848;2023-08-06T09:10:30;95900.81;;;19.49;50.41
40838;BME280;29632;49.168;9.848;2023-08-06T09:12:57;95905.09;;;19.50;50.63
40838;BME280;29632;49.168;9.848;2023-08-06T09:15:24;95905.88;;;19.51;50.60
40838;BME280;29632;49.168;9.848;2023-08-06T09:17:52;95916.44;;;19.51;50.57
40838;BME280;29632;49.168;9.848;2023-08-06T09:20:18;95907.94;;;19.49;50.49
40838;BME280;29632;49.168;9.848;2023-08-06T09:22:43;95906.69;;;19.51;50.47
40838;BME280;29632;49.168;9.848;2023-08-06T09:25:11;95907.94;;;19.49;50.68
40838;BME280;29632;49.168;9.848;2023-08-06T09:27:38;95910.59;;;19.49;50.46
40838;BME280;29632;49.168;9.848;2023-08-06T09:30:05;95904.03;;;19.51;50.70
40838;BME280;29632;49.168;9.848;2023-08-06T09:32:48;95907.25;;;19.53;50.63
40838;BME280;29632;49.168;9.848;2023-08-06T09:35:17;95913.94;;;19.56;50.69
40838;BME280;29632;49.168;9.848;2023-08-06T09:37:43;95908.22;;;19.59;50.82
40838;BME280;29632;49.168;9.848;2023-08-06T09:40:32;95901.47;;;19.63;50.64
40838;BME280;29632;49.168;9.848;2023-08-06T09:42:58;95902.84;;;19.66;50.64
40838;BME280;29632;49.168;9.848;2023-08-06T09:48:01;95906.47;;;19.71;50.73
40838;BME280;29632;49.168;9.848;2023-08-06T09:50:32;95911.31;;;19.74;50.59
40838;BME280;29632;49.168;9.848;2023-08-06T09:53:02;95904.19;;;19.75;50.61
40838;BME280;29632;49.168;9.848;2023-08-06T09:55:27;95905.94;;;19.81;50.76
40838;BME280;29632;49.168;9.848;2023-08-06T09:57:54;95906.75;;;19.82;50.69
40838;BME280;29632;49.168;9.848;2023-08-06T10:00:20;95908.94;;;19.85;50.72
40838;BME280;29632;49.168;9.848;2023-08-06T10:02:46;95907.69;;;19.87;50.79
40838;BME280;29632;49.168;9.848;2023-08-06T10:05:12;95905.06;;;19.87;50.69
40838;BME280;29632;49.168;9.848;2023-08-06T10:07:39;95897.78;;;19.83;50.94
40838;BME280;29632;49.168;9.848;2023-08-06T10:10:06;95897.66;;;19.77;51.18
40838;BME280;29632;49.168;9.848;2023-08-06T10:12:34;95897.44;;;19.79;50.96
40838;BME280;29632;49.168;9.848;2023-08-06T10:15:03;95889.16;;;19.75;51.00
40838;BME280;29632;49.168;9.848;2023-08-06T10:17:30;95897.47;;;19.72;51.05
40838;BME280;29632;49.168;9.848;2023-08-06T10:19:56;95893.69;;;19.68;51.41
40838;BME280;29632;49.168;9.848;2023-08-06T10:22:24;95897.56;;;19.66;51.40
40838;BME280;29632;49.168;9.848;2023-08-06T10:27:28;95900.34;;;19.71;51.30
40838;BME280;29632;49.168;9.848;2023-08-06T10:29:55;95909.50;;;19.75;51.28
40838;BME280;29632;49.168;9.848;2023-08-06T10:32:20;95898.69;;;19.76;51.11
40838;BME280;29632;49.168;9.848;2023-08-06T10:34:54;95908.34;;;19.83;51.16
40838;BME280;29632;49.168;9.848;2023-08-06T10:37:35;95894.28;;;19.89;51.05
40838;BME280;29632;49.168;9.848;2023-08-06T10:40:02;95891.75;;;19.94;51.17
40838;BME280;29632;49.168;9.848;2023-08-06T10:42:29;95891.75;;;19.94;51.25
40838;BME280;29632;49.168;9.848;2023-08-06T10:45:14;95883.59;;;19.95;51.24
40838;BME280;29632;49.168;9.848;2023-08-06T10:47:40;95879.34;;;19.94;51.46
40838;BME280;29632;49.168;9.848;2023-08-06T10:50:16;95887.06;;;19.96;51.28
40838;BME280;29632;49.168;9.848;2023-08-06T10:52:46;95884.41;;;19.96;51.51
40838;BME280;29632;49.168;9.848;2023-08-06T10:55:13;95889.34;;;19.92;51.30
40838;BME280;29632;49.168;9.848;2023-08-06T10:57:39;95886.00;;;19.85;51.38
40838;BME280;29632;49.168;9.848;2023-08-06T11:00:06;95885.50;;;19.76;51.71
40838;BME280;29632;49.168;9.848;2023-08-06T11:02:35;95867.00;;;19.76;51.60
40838;BME280;29632;49.168;9.848;2023-08-06T11:05:08;95873.44;;;19.80;51.47
40838;BME280;29632;49.168;9.848;2023-08-06T11:07:35;95877.09;;;19.79;51.41
40838;BME280;29632;49.168;9.848;2023-08-06T11:10:12;95872.63;;;19.80;51.64
40838;BME280;29632;49.168;9.848;2023-08-06T11:12:38;95875.50;;;19.78;51.79
40838;BME280;29632;49.168;9.848;2023-08-06T11:15:04;95873.09;;;19.77;51.72
40838;BME280;29632;49.168;9.848;2023-08-06T11:17:31;95880.34;;;19.82;51.83
40838;BME280;29632;49.168;9.848;2023-08-06T11:20:04;95885.84;;;19.80;51.54
40838;BME280;29632;49.168;9.848;2023-08-06T11:22:30;95881.22;;;19.75;51.91
40838;BME280;29632;49.168;9.848;2023-08-06T11:24:56;95881.72;;;19.66;51.81
40838;BME280;29632;49.168;9.848;2023-08-06T11:27:22;95879.53;;;19.62;52.03
40838;BME280;29632;49.168;9.848;2023-08-06T11:29:47;95879.31;;;19.64;52.21
40838;BME280;29632;49.168;9.848;2023-08-06T11:32:13;95884.47;;;19.59;52.14
40838;BME280;29632;49.168;9.848;2023-08-06T11:34:39;95897.06;;;19.57;52.07
40838;BME280;29632;49.168;9.848;2023-08-06T11:37:06;95878.00;;;19.55;52.13
40838;BME280;29632;49.168;9.848;2023-08-06T11:39:36;95884.22;;;19.60;52.40
40838;BME280;29632;49.168;9.848;2023-08-06T11:42:05;95880.13;;;19.65;51.85
40838;BME280;29632;49.168;9.848;2023-08-06T11:44:32;95882.19;;;19.62;51.86
40838;BME280;29632;49.168;9.848;2023-08-06T11:47:00;95881.97;;;19.64;52.14
40838;BME280;29632;49.168;9.848;2023-08-06T11:49:38;95887.81;;;19.66;52.10
40838;BME280;29632;49.168;9.848;2023-08-06T11:52:25;95892.28;;;19.66;52.01
40838;BME280;29632;49.168;9.848;2023-08-06T11:57:39;95893.03;;;19.54;52.04
40838;BME280;29632;49.168;9.848;2023-08-06T12:00:12;95900.59;;;19.51;52.08
40838;BME280;29632;49.168;9.848;2023-08-06T12:02:42;95902.31;;;19.45;52.05
40838;BME280;29632;49.168;9.848;2023-08-06T12:05:11;95902.88;;;19.47;52.20
40838;BME280;29632;49.168;9.848;2023-08-06T12:07:42;95893.91;;;19.48;52.23
40838;BME280;29632;49.168;9.848;2023-08-06T12:10:09;95911.03;;;19.46;52.15
40838;BME280;29632;49.168;9.848;2023-08-06T12:12:35;95920.50;;;19.35;52.29
40838;BME280;29632;49.168;9.848;2023-08-06T12:15:02;95916.75;;;19.24;52.54
40838;BME280;29632;49.168;9.848;2023-08-06T12:17:27;95917.84;;;19.16;52.42
40838;BME280;29632;49.168;9.848;2023-08-06T12:19:53;95917.69;;;19.11;52.48
40838;BME280;29632;49.168;9.848;2023-08-06T12:22:19;95921.22;;;19.05;52.36
40838;BME280;29632;49.168;9.848;2023-08-06T12:24:45;95926.91;;;19.02;52.45
40838;BME280;29632;49.168;9.848;2023-08-06T12:27:11;95918.69;;;18.92;52.62
40838;BME280;29632;49.168;9.848;2023-08-06T12:29:41;95932.75;;;18.85;52.76
40838;BME280;29632;49.168;9.848;2023-08-06T12:32:08;95934.38;;;18.80;52.52
40838;BME280;29632;49.168;9.848;2023-08-06T12:34:34;95942.59;;;18.72;52.95
40838;BME280;29632;49.168;9.848;2023-08-06T12:36:59;95934.06;;;18.69;52.76
40838;BME280;29632;49.168;9.848;2023-08-06T12:39:25;95933.25;;;18.69;52.87
40838;BME280;29632;49.168;9.848;2023-08-06T12:41:57;95943.22;;;18.67;52.85
40838;BME280;29632;49.168;9.848;2023-08-06T12:44:23;95937.56;;;18.63;52.68
40838;BME280;29632;49.168;9.848;2023-08-06T12:46:50;95949.28;;;18.67;52.79
40838;BME280;29632;49.168;9.848;2023-08-06T12:49:17;95954.41;;;18.62;52.94
40838;BME280;29632;49.168;9.848;2023-08-06T12:51:43;95953.44;;;18.57;52.67
40838;BME280;29632;49.168;9.848;2023-08-06T12:54:09;95955.53;;;18.48;52.99
40838;BME280;29632;49.168;9.848;2023-08-06T12:56:34;95966.69;;;18.43;52.95
40838;BME280;29632;49.168;9.848;2023-08-06T12:59:00;95972.44;;;18.34;52.97
40838;BME280;29632;49.168;9.848;2023-08-06T13:01:26;95965.59;;;18.26;53.04
40838;BME280;29632;49.168;9.848;2023-08-06T13:03:51;95966.44;;;18.20;53.46
40838;BME280;29632;49.168;9.848;2023-08-06T13:06:17;95972.16;;;18.10;53.33
40838;BME280;29632;49.168;9.848;2023-08-06T13:08:43;95978.88;;;18.06;53.51
40838;BME280;29632;49.168;9.848;2023-08-06T13:11:09;95975.88;;;18.02;53.50